createdAt,value
2019-01-03T00:01:13.771Z,96472.61
2019-01-03T00:04:03.046Z,96467.38
2019-01-03T00:06:50.405Z,96472.96
2019-01-03T00:09:37.204Z,96478.83
2019-01-03T00:12:45.085Z,96472.52
2019-01-03T00:15:22.175Z,96310.44
2019-01-03T00:17:53.323Z,96468.69
2019-01-03T00:20:27.109Z,96468.19
2019-01-03T00:23:14.280Z,96487.89
2019-01-03T00:25:50.918Z,96487.17
2019-01-03T00:28:37.987Z,96489.84
2019-01-03T00:31:20.911Z,96489.81
2019-01-03T00:34:07.783Z,96492.70
2019-01-03T00:36:54.081Z,96494.84
2019-01-03T00:39:25.199Z,96494.62
2019-01-03T00:42:11.171Z,96498.73
2019-01-03T00:44:57.843Z,96510.18
2019-01-03T00:47:44.847Z,96506.77
2019-01-03T00:50:31.102Z,96506.84
2019-01-03T00:53:02.249Z,96506.88
2019-01-03T00:55:51.589Z,96504.56
2019-01-03T00:58:25.169Z,96509.08
2019-01-03T01:01:01.818Z,96515.50
2019-01-03T01:03:36.042Z,96518.55
2019-01-03T01:06:23.159Z,96527.91
2019-01-03T01:09:00.566Z,96529.96
2019-01-03T01:11:47.485Z,96531.17
2019-01-03T01:14:21.624Z,96542.63
2019-01-03T01:17:08.839Z,96539.28
2019-01-03T01:19:46.016Z,96547.28
2019-01-03T01:22:20.206Z,96551.13
2019-01-03T01:25:06.861Z,96551.95
2019-01-03T01:27:55.543Z,96554.44
2019-01-03T01:30:42.542Z,96553.20
2019-01-03T01:33:26.967Z,96556.54
2019-01-03T01:36:07.112Z,96566.93
2019-01-03T01:38:53.834Z,96562.59
2019-01-03T01:41:30.376Z,96565.87
2019-01-03T01:44:01.526Z,96569.17
2019-01-03T01:46:38.451Z,96567.66
2019-01-03T01:49:15.282Z,96573.42
2019-01-03T01:52:02.488Z,96575.70
2019-01-03T01:54:42.371Z,96579.11
2019-01-03T01:57:29.545Z,96572.36
2019-01-03T02:00:16.215Z,96575.70
2019-01-03T02:02:47.358Z,96583.93
2019-01-03T02:05:21.153Z,96574.99
2019-01-03T02:08:10.547Z,96578.56
2019-01-03T02:10:41.675Z,96580.73
2019-01-03T02:13:15.627Z,96577.56
2019-01-03T02:15:52.196Z,96587.48
2019-01-03T02:18:35.241Z,96583.81
2019-01-03T02:21:06.937Z,96579.33
2019-01-03T02:23:43.526Z,96581.98
2019-01-03T02:26:30.765Z,96587.12
2019-01-03T02:29:17.776Z,96587.66
2019-01-03T02:32:05.034Z,96593.11
2019-01-03T02:34:52.283Z,96592.19
2019-01-03T02:37:26.113Z,96589.69
2019-01-03T02:40:13.343Z,96586.09
2019-01-03T02:43:00.864Z,96586.20
2019-01-03T02:45:31.985Z,96584.37
2019-01-03T02:48:11.835Z,96584.16
2019-01-03T02:50:51.799Z,96582.12
2019-01-03T02:53:25.649Z,96578.13
2019-01-03T02:55:56.780Z,96570.64
2019-01-03T02:58:42.959Z,96572.98
2019-01-03T03:01:14.158Z,96568.80
2019-01-03T03:03:51.059Z,96580.19
2019-01-03T03:06:38.098Z,96584.81
2019-01-03T03:09:12.165Z,96580.59
2019-01-03T03:11:58.042Z,96580.63
2019-01-03T03:14:31.634Z,96580.92
2019-01-03T03:17:08.501Z,96587.12
2019-01-03T03:19:39.643Z,96576.62
2019-01-03T03:22:11.809Z,96581.06
2019-01-03T03:24:42.963Z,96582.94
2019-01-03T03:27:26.815Z,96582.02
2019-01-03T03:29:58.009Z,96581.80
2019-01-03T03:32:44.977Z,96591.42
2019-01-03T03:35:31.952Z,96587.13
2019-01-03T03:38:08.963Z,96585.51
2019-01-03T03:40:43.112Z,96592.59
2019-01-03T03:43:16.731Z,96582.94
2019-01-03T03:46:02.361Z,96581.18
2019-01-03T03:48:39.188Z,96581.03
2019-01-03T03:51:26.445Z,96576.18
2019-01-03T03:54:00.282Z,96580.92
2019-01-03T03:56:34.104Z,96580.03
2019-01-03T03:59:16.718Z,96581.06
2019-01-03T04:01:47.844Z,96578.91
2019-01-03T04:04:34.657Z,96584.55
2019-01-03T04:07:11.591Z,96570.78
2019-01-03T04:13:19.363Z,96575.27
2019-01-03T04:15:59.389Z,96365.95
2019-01-03T04:18:30.517Z,96569.72
2019-01-03T04:21:13.162Z,96571.70
2019-01-03T04:23:44.387Z,96573.65
2019-01-03T04:26:13.669Z,96566.34
2019-01-03T04:28:44.791Z,96571.85
2019-01-03T04:31:18.394Z,96568.62
2019-01-03T04:33:56.581Z,96566.23
2019-01-03T04:36:33.113Z,96566.93
2019-01-03T04:39:12.705Z,96567.04
2019-01-03T04:41:43.858Z,96557.49
2019-01-03T04:44:26.759Z,96552.02
2019-01-03T04:47:00.573Z,96546.44
2019-01-03T04:49:40.364Z,96548.27
2019-01-03T04:52:26.551Z,96544.80
2019-01-03T04:55:12.296Z,96542.16
2019-01-03T04:57:59.402Z,96544.94
2019-01-03T05:00:39.309Z,96546.51
2019-01-03T05:03:16.268Z,96545.47
2019-01-03T05:06:02.259Z,96553.31
2019-01-03T05:08:33.375Z,96558.23
2019-01-03T05:11:13.208Z,96549.26
2019-01-03T05:13:44.349Z,96550.10
2019-01-03T05:16:24.245Z,96558.13
2019-01-03T05:19:11.244Z,96559.34
2019-01-03T05:21:58.282Z,96577.99
2019-01-03T05:24:30.221Z,96580.36
2019-01-03T05:27:17.239Z,96583.45
2019-01-03T05:30:03.237Z,96584.22
2019-01-03T05:32:41.387Z,96586.77
2019-01-03T05:35:13.844Z,96583.58
2019-01-03T05:37:50.768Z,96591.72
2019-01-03T05:40:35.152Z,96596.75
2019-01-03T05:43:20.894Z,96596.55
2019-01-03T05:46:01.234Z,96600.35
2019-01-03T05:48:48.450Z,96600.55
2019-01-03T05:51:19.568Z,96602.68
2019-01-03T05:53:59.452Z,96602.92
2019-01-03T05:56:46.735Z,96607.50
2019-01-03T05:59:26.262Z,96615.04
2019-01-03T06:02:00.371Z,96613.66
2019-01-03T06:04:40.581Z,96614.00
2019-01-03T06:07:14.300Z,96613.90
2019-01-03T06:09:45.451Z,96620.48
2019-01-03T06:12:26.339Z,96620.45
2019-01-03T06:15:15.169Z,96630.25
2019-01-03T06:18:02.195Z,96635.42
2019-01-03T06:20:51.269Z,96640.87
2019-01-03T06:23:28.439Z,96643.37
2019-01-03T06:26:15.673Z,96647.13
2019-01-03T06:29:02.651Z,96643.64
2019-01-03T06:31:49.680Z,96642.80
2019-01-03T06:34:24.394Z,96639.68
2019-01-03T06:37:07.444Z,96640.36
2019-01-03T06:39:40.975Z,96646.24
2019-01-03T06:42:21.146Z,96653.81
2019-01-03T06:45:10.196Z,96654.01
2019-01-03T06:47:56.954Z,96656.20
2019-01-03T06:50:39.981Z,96662.16
2019-01-03T06:53:13.585Z,96663.17
2019-01-03T06:55:56.708Z,96664.16
2019-01-03T06:58:33.898Z,96665.37
2019-01-03T07:01:16.862Z,96665.91
2019-01-03T07:03:48.019Z,96667.27
2019-01-03T07:06:37.011Z,96674.35
2019-01-03T07:09:25.367Z,96683.11
2019-01-03T07:12:12.301Z,96679.36
2019-01-03T07:14:50.291Z,96686.19
2019-01-03T07:17:39.245Z,96684.61
2019-01-03T07:20:16.497Z,96694.53
2019-01-03T07:22:56.601Z,96692.91
2019-01-03T07:25:33.187Z,96698.05
2019-01-03T07:28:21.145Z,96697.45
2019-01-03T07:30:59.465Z,96697.18
2019-01-03T07:33:40.255Z,96699.85
2019-01-03T07:36:21.431Z,96702.02
2019-01-03T07:39:07.401Z,96699.28
2019-01-03T07:41:38.554Z,96705.49
2019-01-03T07:44:12.724Z,96702.72
2019-01-03T07:46:41.999Z,96700.46
2019-01-03T07:49:16.083Z,96687.48
2019-01-03T07:51:47.249Z,96693.46
2019-01-03T07:54:36.027Z,96691.30
2019-01-03T07:57:23.016Z,96699.27
2019-01-03T08:00:09.044Z,96693.62
2019-01-03T08:02:55.960Z,96697.86
2019-01-03T08:05:28.012Z,96702.42
2019-01-03T08:08:13.935Z,96698.91
2019-01-03T08:10:53.983Z,96701.92
2019-01-03T08:13:34.155Z,96698.89
2019-01-03T08:16:07.969Z,96702.70
2019-01-03T08:18:39.118Z,96700.17
2019-01-03T08:21:25.148Z,96696.70
2019-01-03T08:23:58.758Z,96703.90
2019-01-03T08:26:32.892Z,96705.48
2019-01-03T08:29:16.126Z,96708.54
2019-01-03T08:32:05.407Z,96705.55
2019-01-03T08:34:40.516Z,96707.03
2019-01-03T08:37:11.729Z,96700.41
2019-01-03T08:39:46.462Z,96707.20
2019-01-03T08:42:32.421Z,96705.30
2019-01-03T08:45:03.568Z,96696.63
2019-01-03T08:47:50.543Z,96708.98
2019-01-03T08:50:33.512Z,96719.34
2019-01-03T08:53:20.448Z,96710.23
2019-01-03T08:55:58.634Z,96715.27
2019-01-03T08:58:35.715Z,96714.02
2019-01-03T09:01:06.915Z,96720.95
2019-01-03T09:03:39.216Z,96729.33
2019-01-03T09:06:11.187Z,96721.59
2019-01-03T09:08:42.369Z,96721.92
2019-01-03T09:11:26.634Z,96723.14
2019-01-03T09:14:12.601Z,96725.00
2019-01-03T09:16:58.326Z,96717.95
2019-01-03T09:19:40.924Z,96718.34
2019-01-03T09:22:20.814Z,96715.87
2019-01-03T09:24:50.083Z,96715.02
2019-01-03T09:27:24.206Z,96710.11
2019-01-03T09:29:55.457Z,96713.85
2019-01-03T09:32:24.697Z,96718.08
2019-01-03T09:35:12.037Z,96721.97
2019-01-03T09:38:19.945Z,96723.49
2019-01-03T09:40:54.661Z,96716.06
2019-01-03T09:43:25.824Z,96725.61
2019-01-03T09:46:33.852Z,96721.83
2019-01-03T09:49:16.290Z,96511.78
2019-01-03T09:51:45.805Z,96714.08
2019-01-03T09:54:15.292Z,96704.66
2019-01-03T09:56:44.978Z,96709.30
2019-01-03T09:59:14.502Z,96707.95
2019-01-03T10:02:15.740Z,96720.62
2019-01-03T10:04:45.270Z,96718.81
2019-01-03T10:07:14.777Z,96717.20
2019-01-03T10:09:44.288Z,96712.16
2019-01-03T10:12:13.845Z,96717.72
2019-01-03T10:14:43.355Z,96706.99
2019-01-03T10:17:12.849Z,96703.19
2019-01-03T10:19:42.372Z,96707.73
2019-01-03T10:22:11.866Z,96695.03
2019-01-03T10:24:41.392Z,96696.91
2019-01-03T10:27:10.936Z,96685.02
2019-01-03T10:29:40.452Z,96682.95
2019-01-03T10:32:09.964Z,96690.23
2019-01-03T10:34:39.483Z,96679.97
2019-01-03T10:37:08.962Z,96683.07
2019-01-03T10:39:38.541Z,96672.30
2019-01-03T10:42:08.038Z,96674.63
2019-01-03T10:44:37.632Z,96673.85
2019-01-03T10:47:07.121Z,96673.64
2019-01-03T10:49:36.619Z,96677.91
2019-01-03T10:52:07.434Z,96672.38
2019-01-03T10:54:36.947Z,96665.38
2019-01-03T10:57:06.458Z,96656.12
2019-01-03T10:59:35.986Z,96655.34
2019-01-03T11:02:05.454Z,96656.05
2019-01-03T11:04:35.939Z,96652.94
2019-01-03T11:07:24.785Z,96646.41
2019-01-03T11:09:54.267Z,96607.80
2019-01-03T11:12:23.822Z,96638.25
2019-01-03T11:14:53.336Z,96631.28
2019-01-03T11:17:23.721Z,96627.22
2019-01-03T11:19:53.224Z,96621.70
2019-01-03T11:22:22.740Z,96627.70
2019-01-03T11:24:52.257Z,96622.18
2019-01-03T11:27:21.744Z,96618.50
2019-01-03T11:29:51.256Z,96619.55
2019-01-03T11:32:20.737Z,96611.66
2019-01-03T11:34:50.246Z,96594.20
2019-01-03T11:37:19.742Z,96601.95
2019-01-03T11:39:49.242Z,96589.58
2019-01-03T11:42:18.734Z,96597.45
2019-01-03T11:44:48.251Z,96599.78
2019-01-03T11:47:17.736Z,96598.02
2019-01-03T11:49:47.261Z,96589.83
2019-01-03T11:52:16.792Z,96582.97
2019-01-03T11:54:46.296Z,96584.26
2019-01-03T11:57:15.791Z,96579.97
2019-01-03T11:59:45.290Z,96579.98
2019-01-03T12:02:14.772Z,96575.52
2019-01-03T12:04:44.288Z,96572.42
2019-01-03T12:07:13.849Z,96567.88
2019-01-03T12:09:43.425Z,96569.02
2019-01-03T12:12:12.928Z,96558.83
2019-01-03T12:14:42.421Z,96554.75
2019-01-03T12:17:11.980Z,96546.63
2019-01-03T12:19:41.523Z,96545.64
2019-01-03T12:22:10.995Z,96544.46
2019-01-03T12:24:40.533Z,96547.84
2019-01-03T12:27:09.992Z,96546.08
2019-01-03T12:29:39.516Z,96539.44
2019-01-03T12:32:09.004Z,96532.92
2019-01-03T12:34:38.545Z,96531.38
2019-01-03T12:37:08.026Z,96527.53
2019-01-03T12:39:38.764Z,96524.86
2019-01-03T12:42:08.254Z,96527.64
2019-01-03T12:44:37.782Z,96529.27
2019-01-03T12:47:07.258Z,96529.89
2019-01-03T12:49:36.768Z,96532.37
2019-01-03T12:52:06.254Z,96534.41
2019-01-03T12:54:35.749Z,96534.41
2019-01-03T12:57:05.268Z,96531.09
2019-01-03T12:59:34.789Z,96537.99
2019-01-03T13:02:04.273Z,96540.41
2019-01-03T13:04:33.847Z,96540.61
2019-01-03T13:07:03.341Z,96536.55
2019-01-03T13:09:33.072Z,96533.05
2019-01-03T13:12:02.631Z,96537.06
2019-01-03T13:14:32.111Z,96535.26
2019-01-03T13:17:02.606Z,96549.69
2019-01-03T13:19:32.094Z,96556.93
2019-01-03T13:22:01.648Z,96549.02
2019-01-03T13:24:31.155Z,96547.82
2019-01-03T13:27:00.633Z,96548.63
2019-01-03T13:29:30.700Z,96553.13
2019-01-03T13:32:00.287Z,96554.62
2019-01-03T13:34:29.829Z,96545.42
2019-01-03T13:36:59.323Z,96551.38
2019-01-03T13:39:28.825Z,96548.34
2019-01-03T13:41:58.896Z,96541.33
2019-01-03T13:44:28.383Z,96544.45
2019-01-03T13:46:57.918Z,96542.98
2019-01-03T13:49:28.642Z,96541.69
2019-01-03T13:51:58.176Z,96540.58
2019-01-03T13:54:27.726Z,96538.89
2019-01-03T13:56:57.259Z,96531.55
2019-01-03T13:59:26.756Z,96536.04
2019-01-03T14:01:56.564Z,96535.87
2019-01-03T14:04:26.058Z,96534.78
2019-01-03T14:06:56.349Z,96538.67
2019-01-03T14:09:25.932Z,96531.91
2019-01-03T14:11:55.446Z,96536.61
2019-01-03T14:14:25.021Z,96536.12
2019-01-03T14:16:54.690Z,96533.02
2019-01-03T14:19:24.758Z,96538.74
2019-01-03T14:21:54.293Z,96543.83
2019-01-03T14:24:23.787Z,96549.55
2019-01-03T14:26:53.309Z,96548.79
2019-01-03T14:29:22.811Z,96552.27
2019-01-03T14:31:53.021Z,96557.47
2019-01-03T14:34:22.632Z,96549.94
2019-01-03T14:36:52.123Z,96557.94
2019-01-03T14:39:21.653Z,96559.55
2019-01-03T14:41:51.188Z,96556.06
2019-01-03T14:44:20.692Z,96555.31
2019-01-03T14:46:50.397Z,96555.82
2019-01-03T14:49:19.959Z,96553.55
2019-01-03T14:51:49.493Z,96548.53
2019-01-03T14:54:19.022Z,96557.62
2019-01-03T14:56:49.546Z,96557.73
2019-01-03T14:59:19.005Z,96560.23
2019-01-03T15:01:48.536Z,96562.36
2019-01-03T15:04:18.070Z,96563.33
2019-01-03T15:06:47.610Z,96556.81
2019-01-03T15:09:18.054Z,96557.98
2019-01-03T15:11:47.549Z,96562.04
2019-01-03T15:14:17.324Z,96560.34
2019-01-03T15:16:46.889Z,96562.32
2019-01-03T15:19:16.381Z,96555.13
2019-01-03T15:21:47.161Z,96556.36
2019-01-03T15:24:16.652Z,96550.98
2019-01-03T15:26:46.657Z,96557.73
2019-01-03T15:29:16.404Z,96554.35
2019-01-03T15:31:46.012Z,96548.97
2019-01-03T15:34:15.930Z,96560.83
2019-01-03T15:36:45.432Z,96565.88
2019-01-03T15:39:15.011Z,96562.98
2019-01-03T15:41:44.559Z,96570.16
2019-01-03T15:44:14.050Z,96557.55
2019-01-03T15:46:44.152Z,96563.73
2019-01-03T15:49:13.699Z,96561.58
2019-01-03T15:51:43.256Z,96558.59
2019-01-03T15:54:12.754Z,96574.02
2019-01-03T15:56:42.278Z,96570.41
2019-01-03T15:59:11.812Z,96566.23
2019-01-03T16:01:41.300Z,96572.45
2019-01-03T16:04:10.837Z,96576.20
2019-01-03T16:06:40.326Z,96578.63
2019-01-03T16:09:09.865Z,96578.13
2019-01-03T16:11:40.475Z,96579.91
2019-01-03T16:14:10.034Z,96582.63
2019-01-03T16:16:39.594Z,96578.95
2019-01-03T16:19:09.097Z,96573.79
2019-01-03T16:21:38.601Z,96575.30
2019-01-03T16:24:08.754Z,96579.84
2019-01-03T16:26:38.252Z,96571.25
2019-01-03T16:29:07.748Z,96564.73
2019-01-03T16:31:37.281Z,96560.67
2019-01-03T16:34:06.823Z,96553.93
2019-01-03T16:36:36.381Z,96551.05
2019-01-03T16:39:07.034Z,96528.09
2019-01-03T16:41:36.562Z,96537.44
2019-01-03T16:44:06.046Z,96532.82
2019-01-03T16:46:35.609Z,96530.62
2019-01-03T16:49:05.262Z,96520.91
2019-01-03T16:51:34.803Z,96521.81
2019-01-03T16:54:04.403Z,96519.57
2019-01-03T16:56:33.915Z,96516.67
2019-01-03T16:59:03.446Z,96520.41
2019-01-03T17:01:33.310Z,96520.89
2019-01-03T17:04:02.912Z,96513.06
2019-01-03T17:06:32.403Z,96517.54
2019-01-03T17:09:01.942Z,96513.45
2019-01-03T17:11:31.439Z,96515.98
2019-01-03T17:14:01.523Z,96511.09
2019-01-03T17:16:31.023Z,96521.71
2019-01-03T17:19:00.553Z,96520.20
2019-01-03T17:21:30.047Z,96517.27
2019-01-03T17:23:59.580Z,96522.93
2019-01-03T17:26:29.761Z,96524.36
2019-01-03T17:28:59.545Z,96536.04
2019-01-03T17:31:29.053Z,96530.80
2019-01-03T17:33:58.646Z,96540.30
2019-01-03T17:36:28.176Z,96544.73
2019-01-03T17:38:57.710Z,96544.50
2019-01-03T17:41:27.200Z,96548.13
2019-01-03T17:43:56.823Z,96552.41
2019-01-03T17:46:26.349Z,96550.91
2019-01-03T17:48:55.896Z,96546.42
2019-01-03T17:51:25.463Z,96545.84
2019-01-03T17:53:55.018Z,96541.22
2019-01-03T17:56:24.509Z,96550.33
2019-01-03T17:58:54.046Z,96546.22
2019-01-03T18:01:23.534Z,96548.55
2019-01-03T18:03:53.071Z,96546.61
2019-01-03T18:06:22.573Z,96546.42
2019-01-03T18:08:52.083Z,96542.75
2019-01-03T18:11:21.691Z,96543.08
2019-01-03T18:13:51.233Z,96545.02
2019-01-03T18:16:20.718Z,96540.56
2019-01-03T18:18:50.327Z,96537.73
2019-01-03T18:21:19.879Z,96544.61
2019-01-03T18:23:49.407Z,96535.59
2019-01-03T18:26:19.986Z,96540.05
2019-01-03T18:28:49.529Z,96536.16
2019-01-03T18:31:19.012Z,96537.27
2019-01-03T18:33:48.542Z,96536.81
2019-01-03T18:36:18.036Z,96545.86
2019-01-03T18:38:48.307Z,96539.03
2019-01-03T18:41:17.855Z,96544.30
2019-01-03T18:43:47.402Z,96531.39
2019-01-03T18:46:16.887Z,96540.99
2019-01-03T18:48:46.426Z,96546.80
2019-01-03T18:51:16.629Z,96550.56
2019-01-03T18:53:46.184Z,96536.86
2019-01-03T18:56:15.674Z,96539.89
2019-01-03T18:58:45.224Z,96536.73
2019-01-03T19:01:14.715Z,96543.01
2019-01-03T19:03:44.243Z,96536.56
2019-01-03T19:06:13.798Z,96535.91
2019-01-03T19:08:43.343Z,96536.08
2019-01-03T19:11:12.846Z,96543.23
2019-01-03T19:13:42.334Z,96543.08
2019-01-03T19:16:13.122Z,96531.99
2019-01-03T19:18:42.633Z,96533.01
2019-01-03T19:21:12.130Z,96535.83
2019-01-03T19:23:41.669Z,96540.53
2019-01-03T19:26:11.379Z,96548.52
2019-01-03T19:28:41.869Z,96547.27
2019-01-03T19:31:11.353Z,96547.29
2019-01-03T19:33:40.920Z,96549.28
2019-01-03T19:36:10.411Z,96547.36
2019-01-03T19:38:39.947Z,96545.19
2019-01-03T19:41:10.107Z,96549.61
2019-01-03T19:43:39.654Z,96545.21
2019-01-03T19:46:09.224Z,96552.80
2019-01-03T19:48:38.768Z,96552.51
2019-01-03T19:51:08.323Z,96559.27
2019-01-03T19:53:37.894Z,96563.75
2019-01-03T19:56:07.383Z,96548.55
2019-01-03T19:58:36.945Z,96552.78
2019-01-03T20:01:06.440Z,96549.49
2019-01-03T20:03:36.039Z,96551.62
2019-01-03T20:06:06.666Z,96550.33
2019-01-03T20:08:36.206Z,96540.05
2019-01-03T20:11:05.694Z,96541.56
2019-01-03T20:13:35.228Z,96540.05
2019-01-03T20:16:04.798Z,96541.28
2019-01-03T20:18:34.928Z,96541.35
2019-01-03T20:21:04.427Z,96538.29
2019-01-03T20:23:34.109Z,96537.47
2019-01-03T20:26:03.665Z,96537.48
2019-01-03T20:28:33.219Z,96529.36
2019-01-03T20:31:02.787Z,96526.92
2019-01-03T20:33:32.343Z,96528.50
2019-01-03T20:36:01.886Z,96520.57
2019-01-03T20:38:31.415Z,96519.23
2019-01-03T20:41:00.976Z,96509.80
2019-01-03T20:43:30.511Z,96512.59
2019-01-03T20:46:00.055Z,96516.57
2019-01-03T20:48:29.612Z,96531.45
2019-01-03T20:50:59.097Z,96520.78
2019-01-03T20:53:28.769Z,96525.30
2019-01-03T20:55:59.544Z,96522.19
2019-01-03T20:58:29.083Z,96529.48
2019-01-03T21:00:58.641Z,96518.52
2019-01-03T21:03:28.256Z,96513.05
2019-01-03T21:05:57.752Z,96523.52
2019-01-03T21:08:28.161Z,96527.56
2019-01-03T21:10:57.654Z,96528.83
2019-01-03T21:13:27.146Z,96527.56
2019-01-03T21:15:56.684Z,96536.77
2019-01-03T21:18:26.223Z,96550.95
2019-01-03T21:20:55.713Z,96546.82
2019-01-03T21:23:25.252Z,96546.02
2019-01-03T21:25:54.747Z,96538.25
2019-01-03T21:28:24.291Z,96542.92
2019-01-03T21:30:53.783Z,96541.40
2019-01-03T21:33:24.570Z,96535.77
2019-01-03T21:35:54.065Z,96543.16
2019-01-03T21:38:23.684Z,96536.22
2019-01-03T21:40:53.167Z,96539.64
2019-01-03T21:43:22.703Z,96544.94
2019-01-03T21:45:53.526Z,96542.83
2019-01-03T21:48:23.117Z,96538.59
2019-01-03T21:50:52.659Z,96530.56
2019-01-03T21:53:22.159Z,96544.46
2019-01-03T21:55:51.711Z,96547.72
2019-01-03T21:58:21.203Z,96548.39
2019-01-03T22:00:50.697Z,96560.31
2019-01-03T22:03:20.237Z,96556.27
2019-01-03T22:05:49.728Z,96559.44
2019-01-03T22:08:19.268Z,96559.36
2019-01-03T22:10:48.778Z,96558.36
2019-01-03T22:13:18.434Z,96558.45
2019-01-03T22:15:48.192Z,96558.05
2019-01-03T22:18:17.690Z,96558.28
2019-01-03T22:20:47.186Z,96564.23
2019-01-03T22:23:17.478Z,96567.57
2019-01-03T22:25:46.970Z,96572.71
2019-01-03T22:28:16.468Z,96569.97
2019-01-03T22:30:46.224Z,96568.97
2019-01-03T22:33:15.743Z,96562.83
2019-01-03T22:35:45.687Z,96564.48
2019-01-03T22:38:15.176Z,96568.30
2019-01-03T22:40:44.695Z,96577.55
2019-01-03T22:43:14.189Z,96574.73
2019-01-03T22:45:43.729Z,96571.64
2019-01-03T22:48:13.996Z,96572.71
2019-01-03T22:50:43.564Z,96574.13
2019-01-03T22:53:13.056Z,96577.55
2019-01-03T22:55:42.779Z,96569.25
2019-01-03T22:58:12.281Z,96563.56
2019-01-03T23:00:42.811Z,96570.24
2019-01-03T23:03:12.345Z,96568.34
2019-01-03T23:05:41.862Z,96571.23
2019-01-03T23:08:11.367Z,96577.18
2019-01-03T23:10:40.894Z,96573.82
2019-01-03T23:13:10.577Z,96576.27
2019-01-03T23:15:40.094Z,96573.45
2019-01-03T23:18:09.585Z,96573.45
2019-01-03T23:20:39.079Z,96573.65
2019-01-03T23:23:08.585Z,96576.02
2019-01-03T23:25:38.811Z,96568.31
2019-01-03T23:28:08.382Z,96572.17
2019-01-03T23:30:37.892Z,96566.41
2019-01-03T23:33:07.413Z,96572.45
2019-01-03T23:35:36.931Z,96571.68
2019-01-03T23:38:06.435Z,96575.78
2019-01-03T23:40:36.008Z,96578.28
2019-01-03T23:43:05.569Z,96573.66
2019-01-03T23:45:35.317Z,96577.52
2019-01-03T23:48:04.953Z,96573.86
2019-01-03T23:50:35.944Z,96569.88
2019-01-03T23:53:05.701Z,96572.36
2019-01-03T23:55:38.216Z,96582.99
2019-01-03T23:58:07.782Z,96578.36
